^^
Saratoga-Weather Station Historical Data
Daily Summary for November 19, 2020 Units:  Metric    English   Both
Daily Weekly Monthly Yearly Custom
  High: Low: Average:
Temperature: 9.5 °C °C 8 °C
Dew Point: 7.7 °C °C 6.8 °C
Humidity: 97% % 91%
Wind Speed: 19.5km/h km/h 5.8km/h
Wind Gust: 25.7km/h - -
Wind- - West
Pressure: 1031.2 hPa 0.0 hPa -
Precipitation: 3.3 mm    
Historical Graphs
 
 
Tabular Data for November 19, 2020
Time Temperature Dew Point Pressure Wind Wind Speed Wind Gust Humidity Rainfall Rate (Hourly) solar
00:00 6.2 °C 5.8 °C 1021.0 hPa Calm     97% 0.0 mm 0 W/m2
00:05 6.2 °C 5.8 °C 1021.0 hPa ESE 1.4 km/h 3.2 km/h 97% 0.0 mm 0 W/m2
00:10 6.4 °C 6 °C 1021.0 hPa ESE 1.4 km/h 3.2 km/h 97% 0.0 mm 0 W/m2
00:15 6.4 °C 6 °C 1021.0 hPa ESE 3.2 km/h 3.2 km/h 97% 0.0 mm 0 W/m2
00:20 6.4 °C 6 °C 1020.7 hPa ESE 1.4 km/h 3.2 km/h 97% 0.0 mm 0 W/m2
00:25 6.3 °C 5.9 °C 1021.0 hPa Calm   1.6 km/h 97% 0.0 mm 0 W/m2
00:30 6.4 °C 6 °C 1020.7 hPa SE 4.8 km/h 4.8 km/h 97% 0.0 mm 0 W/m2
00:36 6.6 °C 6.2 °C 1020.7 hPa SE 3.2 km/h 3.2 km/h 97% 0.0 mm 0 W/m2
00:41 6.7 °C 6.3 °C 1020.7 hPa SE 1.4 km/h 3.2 km/h 97% 0.0 mm 0 W/m2
00:46 6.9 °C 6.5 °C 1020.7 hPa SE 4.7 km/h 4.8 km/h 97% 0.0 mm 0 W/m2
00:51 7 °C 6.6 °C 1020.7 hPa ESE 3.2 km/h 9.7 km/h 97% 0.0 mm 0 W/m2
00:56 7.2 °C 6.8 °C 1020.7 hPa East 4.7 km/h 6.4 km/h 97% 0.0 mm 0 W/m2
01:01 7.3 °C 6.9 °C 1020.7 hPa East 4.7 km/h 4.8 km/h 97% 0.0 mm 0 W/m2
07:22 7.9 °C 6.5 °C 1022.0 hPa West 4.7 km/h 4.8 km/h 91% 0.0 mm 0 W/m2
07:27 7.8 °C 6.4 °C 1022.0 hPa WSW 4.7 km/h 8 km/h 91% 0.0 mm 0 W/m2
07:37 7.8 °C 6.4 °C 1022.4 hPa WSW 11.1 km/h 12.9 km/h 91% 0.0 mm 0 W/m2
07:42 7.8 °C 6.4 °C 1022.4 hPa West 1.4 km/h 3.2 km/h 91% 0.0 mm 0 W/m2
07:52 7.8 °C 6.6 °C 1022.4 hPa WSW 6.4 km/h 6.4 km/h 92% 0.0 mm 0 W/m2
07:57 7.8 °C 6.6 °C 1022.4 hPa West 3.2 km/h 6.4 km/h 92% 0.0 mm 0 W/m2
08:01 °C °C 0.0 hPa Calm     % 0.0 mm W/m2
08:07 7.8 °C 6.7 °C 1022.7 hPa NW 4.7 km/h 6.4 km/h 93% 0.0 mm 0 W/m2
08:17 7.8 °C 6.7 °C 1023.4 hPa Calm   6.4 km/h 93% 0.0 mm 5 W/m2
08:22 7.8 °C 6.7 °C 1023.4 hPa WNW 6.4 km/h 16.1 km/h 93% 0.0 mm 5 W/m2
08:27 7.8 °C 6.7 °C 1023.4 hPa West 6.4 km/h 11.3 km/h 93% 0.0 mm 7 W/m2
08:32 7.8 °C 6.7 °C 1023.4 hPa West 13 km/h 16.1 km/h 93% 0.0 mm 7 W/m2
08:37 7.9 °C 6.8 °C 1023.4 hPa West 3.2 km/h 6.4 km/h 93% 0.0 mm 9 W/m2
08:42 7.9 °C 6.8 °C 1023.4 hPa West 9.7 km/h 16.1 km/h 93% 0.0 mm 19 W/m2
08:47 7.9 °C 6.8 °C 1023.7 hPa West 6.4 km/h 11.3 km/h 93% 0.0 mm 44 W/m2
08:52 8 °C 6.8 °C 1023.7 hPa NW 3.2 km/h 17.7 km/h 92% 0.0 mm 40 W/m2
08:57 8 °C 6.8 °C 1023.7 hPa WNW 3.2 km/h 12.9 km/h 92% 0.0 mm 33 W/m2
09:02 8 °C 6.8 °C 1023.7 hPa WNW 6.4 km/h 19.3 km/h 92% 0.0 mm 47 W/m2
09:07 8.1 °C 6.9 °C 1023.7 hPa West 6.4 km/h 6.4 km/h 92% 0.0 mm 69 W/m2
09:12 8.1 °C 6.9 °C 1023.7 hPa WNW 11.1 km/h 19.3 km/h 92% 0.0 mm 58 W/m2
09:17 8.1 °C 6.9 °C 1023.7 hPa WSW 4.7 km/h 11.3 km/h 92% 0.0 mm 35 W/m2
09:22 8.1 °C 6.9 °C 1023.7 hPa WSW 4.7 km/h 9.7 km/h 92% 0.0 mm 95 W/m2
09:27 8.2 °C 7 °C 1024.0 hPa West 11.1 km/h 12.9 km/h 92% 0.0 mm 79 W/m2
09:32 8.2 °C 7 °C 1024.0 hPa West 6.4 km/h 9.7 km/h 92% 0.0 mm 49 W/m2
09:37 8.3 °C 7.1 °C 1024.0 hPa WSW 3.2 km/h 11.3 km/h 92% 0.0 mm 88 W/m2
09:42 8.3 °C 7.1 °C 1024.0 hPa WSW 6.4 km/h 12.9 km/h 92% 0.0 mm 90 W/m2
09:47 8.3 °C 7.1 °C 1024.0 hPa WSW 4.7 km/h 11.3 km/h 92% 0.0 mm 98 W/m2
09:52 8.4 °C 7.2 °C 1024.0 hPa WSW 6.4 km/h 12.9 km/h 92% 0.0 mm 104 W/m2
09:57 8.4 °C 7.2 °C 1024.0 hPa WNW 17.7 km/h 17.7 km/h 92% 0.0 mm 88 W/m2
10:02 8.4 °C 7 °C 1024.0 hPa WNW 6.4 km/h 11.3 km/h 91% 0.0 mm 69 W/m2
10:07 8.4 °C 7 °C 1024.0 hPa West 13 km/h 14.5 km/h 91% 0.0 mm 81 W/m2
10:12 8.4 °C 7 °C 1024.0 hPa West 3.2 km/h 6.4 km/h 91% 0.0 mm 109 W/m2
10:17 8.5 °C 7 °C 1024.0 hPa WNW 4.7 km/h 17.7 km/h 90% 0.0 mm 102 W/m2
10:22 8.6 °C 7.1 °C 1024.0 hPa West 4.7 km/h 17.7 km/h 90% 0.0 mm 109 W/m2
10:27 8.7 °C 7.2 °C 1024.0 hPa NNW 6.4 km/h 11.3 km/h 90% 0.0 mm 111 W/m2
10:32 8.7 °C 7.2 °C 1024.4 hPa WNW 6.4 km/h 11.3 km/h 90% 0.0 mm 95 W/m2
10:37 8.7 °C 7.2 °C 1024.0 hPa West 3.2 km/h 11.3 km/h 90% 0.0 mm 93 W/m2
10:42 8.7 °C 7 °C 1024.0 hPa WNW 4.7 km/h 9.7 km/h 89% 0.0 mm 135 W/m2
10:47 8.8 °C 7.1 °C 1024.0 hPa WNW 9.7 km/h 17.7 km/h 89% 0.0 mm 88 W/m2
10:52 8.8 °C 7.1 °C 1024.0 hPa West 6.4 km/h 9.7 km/h 89% 0.0 mm 141 W/m2
10:57 8.9 °C 7.2 °C 1024.0 hPa West 1.4 km/h 16.1 km/h 89% 0.0 mm 121 W/m2
11:02 9 °C 7.3 °C 1024.0 hPa West 6.4 km/h 9.7 km/h 89% 0.0 mm 192 W/m2
11:08 9.1 °C 7.4 °C 1024.0 hPa NW 7.9 km/h 12.9 km/h 89% 0.0 mm 144 W/m2
11:13 9.2 °C 7.5 °C 1024.4 hPa WSW 14.3 km/h 17.7 km/h 89% 0.0 mm 148 W/m2
11:18 9.2 °C 7.3 °C 1024.0 hPa WNW 4.7 km/h 16.1 km/h 88% 0.0 mm 97 W/m2
11:23 9.2 °C 7.3 °C 1024.0 hPa WNW 11.1 km/h 17.7 km/h 88% 0.0 mm 207 W/m2
11:28 9.3 °C 7.4 °C 1024.0 hPa NW 7.9 km/h 9.7 km/h 88% 0.0 mm 190 W/m2
11:33 9.4 °C 7.5 °C 1024.0 hPa West 6.4 km/h 9.7 km/h 88% 0.0 mm 183 W/m2
11:38 9.4 °C 7.3 °C 1024.0 hPa NW 6.4 km/h 14.5 km/h 87% 0.0 mm 171 W/m2
11:43 9.5 °C 7.4 °C 1024.0 hPa WSW 6.4 km/h 20.9 km/h 87% 0.0 mm 160 W/m2
11:48 9.5 °C 7.3 °C 1024.0 hPa SW 17.7 km/h 17.7 km/h 86% 0.0 mm 81 W/m2
11:53 9.4 °C 7.3 °C 1024.0 hPa NNW 7.9 km/h 11.3 km/h 87% 0.0 mm 128 W/m2
11:58 9.2 °C 7.3 °C 1024.0 hPa SW 9.7 km/h 14.5 km/h 88% 0.0 mm 107 W/m2
12:03 9.1 °C 7.4 °C 1024.4 hPa West 9.7 km/h 16.1 km/h 89% 0.0 mm 88 W/m2
12:08 9.1 °C 7.4 °C 1024.0 hPa WNW 11.1 km/h 24.1 km/h 89% 0.0 mm 47 W/m2
12:13 9.1 °C 7.4 °C 1024.0 hPa WNW 4.7 km/h 17.7 km/h 89% 0.0 mm 83 W/m2
12:18 9.1 °C 7.2 °C 1024.4 hPa WNW 19.5 km/h 19.3 km/h 88% 0.0 mm 65 W/m2
12:23 9.1 °C 7.2 °C 1024.4 hPa NW 9.7 km/h 14.5 km/h 88% 0.0 mm 49 W/m2
12:28 9.1 °C 7.2 °C 1024.4 hPa NW 9.7 km/h 17.7 km/h 88% 0.0 mm 98 W/m2
12:33 9.2 °C 7.1 °C 1024.4 hPa WNW 13 km/h 25.7 km/h 87% 0.0 mm 153 W/m2
12:38 9.3 °C 7.2 °C 1024.4 hPa NW 4.7 km/h 12.9 km/h 87% 0.0 mm 141 W/m2
12:43 9.3 °C 7.1 °C 1024.4 hPa WNW 7.9 km/h 25.7 km/h 86% 0.0 mm 113 W/m2
12:48 9.4 °C 7.2 °C 1024.0 hPa SW 3.2 km/h 16.1 km/h 86% 0.0 mm 111 W/m2
12:53 9.4 °C 7.2 °C 1024.0 hPa West 11.1 km/h 16.1 km/h 86% 0.0 mm 91 W/m2
12:58 9.4 °C 7.2 °C 1024.4 hPa West 14.3 km/h 17.7 km/h 86% 0.0 mm 93 W/m2
13:03 9.4 °C 7.3 °C 1024.4 hPa WNW 7.9 km/h 17.7 km/h 87% 0.0 mm 74 W/m2
13:08 9.3 °C 7.4 °C 1024.4 hPa WNW 4.7 km/h 12.9 km/h 88% 0.0 mm 60 W/m2
13:13 9.1 °C 7.4 °C 1024.4 hPa WNW 1.4 km/h 16.1 km/h 89% 0.2 mm 60 W/m2
13:18 9.1 °C 7.5 °C 1024.4 hPa West 9.7 km/h 11.3 km/h 90% 0.2 mm 56 W/m2
13:23 8.9 °C 7.5 °C 1024.4 hPa NW 3.2 km/h 9.7 km/h 91% 0.5 mm 42 W/m2
13:28 8.8 °C 7.4 °C 1024.4 hPa WSW 11.1 km/h 14.5 km/h 91% 0.5 mm 102 W/m2
13:33 8.8 °C 7.6 °C 1024.7 hPa West 6.4 km/h 11.3 km/h 92% 0.5 mm 97 W/m2
13:38 8.8 °C 7.6 °C 1024.4 hPa NW 6.4 km/h 16.1 km/h 92% 0.5 mm 118 W/m2
13:43 8.8 °C 7.6 °C 1024.7 hPa WSW 1.4 km/h 12.9 km/h 92% 0.5 mm 77 W/m2
13:48 8.8 °C 7.6 °C 1024.7 hPa WSW 11.1 km/h 16.1 km/h 92% 0.5 mm 79 W/m2
13:53 8.8 °C 7.4 °C 1024.7 hPa WNW 1.4 km/h 6.4 km/h 91% 0.5 mm 116 W/m2
13:58 8.9 °C 7.7 °C 1024.7 hPa SW 6.4 km/h 8 km/h 92% 0.5 mm 76 W/m2
14:03 8.9 °C 7.5 °C 1024.7 hPa WNW 11.1 km/h 20.9 km/h 91% 0.5 mm 125 W/m2
14:08 9.1 °C 7.7 °C 1025.1 hPa West 13 km/h 17.7 km/h 91% 0.5 mm 121 W/m2
14:13 9.1 °C 7.5 °C 1025.1 hPa West 6.4 km/h 20.9 km/h 90% 0.5 mm 100 W/m2
14:18 9.1 °C 7.5 °C 1025.1 hPa WSW 1.4 km/h 11.3 km/h 90% 0.5 mm 90 W/m2
14:23 9.1 °C 7.5 °C 1025.1 hPa West 11.1 km/h 20.9 km/h 90% 0.2 mm 47 W/m2
14:28 9.1 °C 7.5 °C 1025.1 hPa West 3.2 km/h 22.5 km/h 90% 0.0 mm 63 W/m2
14:33 9 °C 7.4 °C 1025.1 hPa WSW 4.7 km/h 12.9 km/h 90% 0.0 mm 47 W/m2
14:38 8.9 °C 7.5 °C 1025.1 hPa WNW 6.4 km/h 12.9 km/h 91% 0.2 mm 53 W/m2
14:43 8.9 °C 7.5 °C 1025.1 hPa WSW 6.4 km/h 11.3 km/h 91% 0.2 mm 47 W/m2
14:48 8.8 °C 7.4 °C 1025.1 hPa WNW 4.7 km/h 6.4 km/h 91% 0.2 mm 39 W/m2
14:53 8.8 °C 7.4 °C 1025.1 hPa WNW 3.2 km/h 12.9 km/h 91% 0.2 mm 40 W/m2
14:58 8.8 °C 7.4 °C 1025.1 hPa WNW 6.4 km/h 6.4 km/h 91% 0.2 mm 46 W/m2
15:03 8.8 °C 7.6 °C 1025.1 hPa SW 4.7 km/h 4.8 km/h 92% 0.2 mm 49 W/m2
15:08 8.8 °C 7.6 °C 1025.1 hPa West 1.4 km/h 4.8 km/h 92% 0.2 mm 37 W/m2
15:13 8.7 °C 7.5 °C 1025.1 hPa Calm   4.8 km/h 92% 0.2 mm 47 W/m2
15:18 8.7 °C 7.5 °C 1025.1 hPa Calm   6.4 km/h 92% 0.2 mm 35 W/m2
15:23 8.8 °C 7.6 °C 1025.1 hPa West 1.4 km/h 6.4 km/h 92% 0.2 mm 35 W/m2
15:28 8.8 °C 7.6 °C 1025.1 hPa Calm   4.8 km/h 92% 0.2 mm 76 W/m2
15:33 8.8 °C 7.6 °C 1025.1 hPa NW 1.4 km/h 4.8 km/h 92% 0.2 mm 47 W/m2
15:38 8.9 °C 7.7 °C 1025.1 hPa SSW 6.4 km/h 6.4 km/h 92% 0.0 mm 30 W/m2
15:43 8.9 °C 7.5 °C 1025.1 hPa East 4.7 km/h 4.8 km/h 91% 0.0 mm 33 W/m2
15:48 8.9 °C 7.5 °C 1025.1 hPa North 1.4 km/h 3.2 km/h 91% 0.2 mm 14 W/m2
15:53 8.8 °C 7.4 °C 1025.1 hPa West 1.4 km/h 6.4 km/h 91% 0.2 mm 14 W/m2
15:58 8.9 °C 7.5 °C 1025.1 hPa West 3.2 km/h 4.8 km/h 91% 0.2 mm 12 W/m2
16:03 8.9 °C 7.5 °C 1025.4 hPa NW 3.2 km/h 6.4 km/h 91% 0.2 mm 30 W/m2
16:08 8.9 °C 7.3 °C 1025.4 hPa WNW 1.4 km/h 3.2 km/h 90% 0.2 mm 16 W/m2
16:13 8.9 °C 7.3 °C 1025.4 hPa WNW 3.2 km/h 4.8 km/h 90% 0.2 mm 14 W/m2
16:18 8.9 °C 7.3 °C 1025.7 hPa Calm   4.8 km/h 90% 0.2 mm 5 W/m2
16:23 8.9 °C 7.3 °C 1025.7 hPa West 3.2 km/h 8 km/h 90% 0.2 mm 0 W/m2
16:28 8.9 °C 7.3 °C 1025.7 hPa Calm   14.5 km/h 90% 0.5 mm 0 W/m2
16:33 8.8 °C 7.2 °C 1026.1 hPa WNW 4.7 km/h 19.3 km/h 90% 1.5 mm 0 W/m2
16:38 8.4 °C 6.7 °C 1026.1 hPa West 4.7 km/h 11.3 km/h 89% 1.8 mm 0 W/m2
16:43 8.1 °C 6.4 °C 1026.1 hPa WSW 6.4 km/h 19.3 km/h 89% 2.3 mm 0 W/m2
16:48 7.8 °C 6.3 °C 1026.1 hPa WNW 13 km/h 14.5 km/h 90% 2.3 mm 0 W/m2
16:53 7.6 °C 6.1 °C 1026.1 hPa WSW 6.4 km/h 12.9 km/h 90% 2.3 mm 0 W/m2
16:58 7.4 °C 5.9 °C 1026.1 hPa WNW 7.9 km/h 12.9 km/h 90% 2.3 mm 0 W/m2
17:03 7.4 °C 5.9 °C 1026.4 hPa West 3.2 km/h 14.5 km/h 90% 2.3 mm 0 W/m2
17:08 7.4 °C 6 °C 1026.4 hPa SW 9.7 km/h 12.9 km/h 91% 2.3 mm 0 W/m2
17:13 7.4 °C 6 °C 1026.4 hPa West 11.1 km/h 14.5 km/h 91% 2.3 mm 0 W/m2
17:18 7.4 °C 6.2 °C 1026.8 hPa WSW 4.7 km/h 14.5 km/h 92% 2.3 mm 0 W/m2
17:23 7.5 °C 6.3 °C 1026.8 hPa West 3.2 km/h 11.3 km/h 92% 2.3 mm 0 W/m2
17:28 7.6 °C 6.4 °C 1026.8 hPa West 6.4 km/h 14.5 km/h 92% 2.0 mm 0 W/m2
17:33 7.6 °C 6.4 °C 1026.8 hPa West 9.7 km/h 11.3 km/h 92% 1.3 mm 0 W/m2
17:38 7.7 °C 6.6 °C 1026.8 hPa SW 7.9 km/h 19.3 km/h 93% 0.8 mm 0 W/m2
17:43 7.8 °C 6.6 °C 1026.8 hPa WNW 3.2 km/h 11.3 km/h 92% 0.5 mm 0 W/m2
17:48 7.8 °C 6.7 °C 1026.8 hPa West 9.7 km/h 19.3 km/h 93% 0.0 mm 0 W/m2
17:53 7.8 °C 6.6 °C 1026.8 hPa WSW 4.7 km/h 12.9 km/h 92% 0.0 mm 0 W/m2
17:58 7.8 °C 6.6 °C 1026.8 hPa SW 14.3 km/h 14.5 km/h 92% 0.0 mm 0 W/m2
18:03 7.8 °C 6.6 °C 1027.1 hPa West 4.7 km/h 12.9 km/h 92% 0.0 mm 0 W/m2
18:08 7.8 °C 6.6 °C 1027.1 hPa West 13 km/h 17.7 km/h 92% 0.0 mm 0 W/m2
18:13 7.8 °C 6.6 °C 1027.1 hPa SSW 3.2 km/h 14.5 km/h 92% 0.0 mm 0 W/m2
18:18 7.9 °C 6.7 °C 1027.1 hPa West 4.7 km/h 17.7 km/h 92% 0.0 mm 0 W/m2
18:23 7.9 °C 6.7 °C 1027.4 hPa West 3.2 km/h 8 km/h 92% 0.0 mm 0 W/m2
18:28 7.8 °C 6.6 °C 1027.4 hPa NW 4.7 km/h 9.7 km/h 92% 0.0 mm 0 W/m2
18:33 7.8 °C 6.6 °C 1027.4 hPa West 4.7 km/h 9.7 km/h 92% 0.0 mm 0 W/m2
18:38 7.8 °C 6.7 °C 1027.4 hPa WNW 4.7 km/h 11.3 km/h 93% 0.0 mm 0 W/m2
18:43 7.8 °C 6.7 °C 1027.4 hPa WNW 7.9 km/h 11.3 km/h 93% 0.0 mm 0 W/m2
18:48 7.9 °C 6.8 °C 1027.4 hPa NW 6.4 km/h 12.9 km/h 93% 0.0 mm 0 W/m2
18:53 7.9 °C 6.7 °C 1027.8 hPa WSW 6.4 km/h 14.5 km/h 92% 0.0 mm 0 W/m2
18:58 7.9 °C 6.7 °C 1027.8 hPa SSW 6.4 km/h 9.7 km/h 92% 0.0 mm 0 W/m2
19:03 7.9 °C 6.7 °C 1027.8 hPa West 4.7 km/h 14.5 km/h 92% 0.0 mm 0 W/m2
19:08 7.9 °C 6.8 °C 1028.1 hPa West 3.2 km/h 9.7 km/h 93% 0.0 mm 0 W/m2
19:13 7.8 °C 6.7 °C 1028.1 hPa WSW 6.4 km/h 6.4 km/h 93% 0.0 mm 0 W/m2
19:18 7.8 °C 6.7 °C 1028.1 hPa West 1.4 km/h 6.4 km/h 93% 0.0 mm 0 W/m2
19:23 7.8 °C 6.7 °C 1028.1 hPa WNW 6.4 km/h 11.3 km/h 93% 0.0 mm 0 W/m2
19:28 7.8 °C 6.7 °C 1028.5 hPa West 6.4 km/h 11.3 km/h 93% 0.0 mm 0 W/m2
19:34 7.8 °C 6.7 °C 1028.5 hPa WSW 7.9 km/h 8 km/h 93% 0.0 mm 0 W/m2
19:39 7.8 °C 6.7 °C 1028.5 hPa WNW 4.7 km/h 11.3 km/h 93% 0.0 mm 0 W/m2
19:44 7.8 °C 6.7 °C 1028.8 hPa West 6.4 km/h 16.1 km/h 93% 0.0 mm 0 W/m2
19:49 7.8 °C 6.7 °C 1028.5 hPa West 1.4 km/h 9.7 km/h 93% 0.0 mm 0 W/m2
19:54 7.8 °C 6.7 °C 1028.5 hPa West 9.7 km/h 16.1 km/h 93% 0.0 mm 0 W/m2
19:59 7.8 °C 6.7 °C 1028.8 hPa WSW 4.7 km/h 9.7 km/h 93% 0.0 mm 0 W/m2
20:04 7.8 °C 6.7 °C 1028.5 hPa West 1.4 km/h 16.1 km/h 93% 0.0 mm 0 W/m2
20:09 7.7 °C 6.6 °C 1028.5 hPa West 9.7 km/h 11.3 km/h 93% 0.0 mm 0 W/m2
20:14 7.7 °C 6.6 °C 1028.5 hPa WNW 6.4 km/h 6.4 km/h 93% 0.0 mm 0 W/m2
20:19 7.6 °C 6.5 °C 1028.5 hPa WNW 7.9 km/h 8 km/h 93% 0.0 mm 0 W/m2
20:24 7.6 °C 6.5 °C 1028.5 hPa West 3.2 km/h 14.5 km/h 93% 0.0 mm 0 W/m2
20:29 7.5 °C 6.4 °C 1028.5 hPa West 6.4 km/h 16.1 km/h 93% 0.0 mm 0 W/m2
20:34 7.5 °C 6.4 °C 1028.8 hPa West 3.2 km/h 14.5 km/h 93% 0.0 mm 0 W/m2
20:39 7.4 °C 6.3 °C 1028.8 hPa WNW 4.7 km/h 16.1 km/h 93% 0.0 mm 0 W/m2
20:44 7.4 °C 6.5 °C 1029.1 hPa WSW 6.4 km/h 12.9 km/h 94% 0.0 mm 0 W/m2
20:49 7.3 °C 6.4 °C 1029.1 hPa West 6.4 km/h 11.3 km/h 94% 0.0 mm 0 W/m2
20:54 7.4 °C 6.5 °C 1029.1 hPa West 6.4 km/h 12.9 km/h 94% 0.0 mm 0 W/m2
20:59 7.4 °C 6.5 °C 1029.1 hPa West 4.7 km/h 14.5 km/h 94% 0.0 mm 0 W/m2
21:04 7.4 °C 6.3 °C 1029.5 hPa SW 7.9 km/h 12.9 km/h 93% 0.0 mm 0 W/m2
21:09 7.4 °C 6.3 °C 1029.5 hPa West 3.2 km/h 9.7 km/h 93% 0.0 mm 0 W/m2
21:14 7.3 °C 6.2 °C 1029.5 hPa WSW 6.4 km/h 12.9 km/h 93% 0.0 mm 0 W/m2
21:19 7.3 °C 6.2 °C 1029.5 hPa West 6.4 km/h 12.9 km/h 93% 0.0 mm 0 W/m2
21:24 7.3 °C 6.2 °C 1029.5 hPa WSW 6.4 km/h 9.7 km/h 93% 0.0 mm 0 W/m2
21:29 7.3 °C 6.2 °C 1029.5 hPa West 4.7 km/h 14.5 km/h 93% 0.0 mm 0 W/m2
21:34 7.2 °C 6.1 °C 1029.8 hPa West 3.2 km/h 9.7 km/h 93% 0.0 mm 0 W/m2
21:39 7.2 °C 6.1 °C 1029.5 hPa West 9.7 km/h 9.7 km/h 93% 0.0 mm 0 W/m2
21:44 7.2 °C 6.1 °C 1029.8 hPa WSW 11.1 km/h 14.5 km/h 93% 0.0 mm 0 W/m2
21:49 7.2 °C 6.3 °C 1029.8 hPa WSW 4.7 km/h 12.9 km/h 94% 0.0 mm 0 W/m2
21:54 7.3 °C 6.2 °C 1029.8 hPa West 6.4 km/h 16.1 km/h 93% 0.0 mm 0 W/m2
21:59 7.3 °C 6.2 °C 1029.8 hPa West 4.7 km/h 14.5 km/h 93% 0.0 mm 0 W/m2
22:04 7.4 °C 6.3 °C 1029.8 hPa West 9.7 km/h 11.3 km/h 93% 0.0 mm 0 W/m2
22:09 7.4 °C 6.3 °C 1029.8 hPa West 6.4 km/h 12.9 km/h 93% 0.0 mm 0 W/m2
22:14 7.4 °C 6.3 °C 1029.8 hPa West 4.7 km/h 11.3 km/h 93% 0.0 mm 0 W/m2
22:19 7.4 °C 6.3 °C 1029.8 hPa WNW 6.4 km/h 9.7 km/h 93% 0.0 mm 0 W/m2
22:24 7.4 °C 6.3 °C 1029.8 hPa WNW 4.7 km/h 11.3 km/h 93% 0.0 mm 0 W/m2
22:29 7.4 °C 6.3 °C 1030.1 hPa NW 3.2 km/h 12.9 km/h 93% 0.0 mm 0 W/m2
22:34 7.4 °C 6.3 °C 1030.1 hPa WNW 6.4 km/h 11.3 km/h 93% 0.0 mm 0 W/m2
22:39 7.3 °C 6.2 °C 1030.1 hPa West 4.7 km/h 12.9 km/h 93% 0.0 mm 0 W/m2
22:44 7.3 °C 6.2 °C 1030.1 hPa WNW 4.7 km/h 9.7 km/h 93% 0.0 mm 0 W/m2
22:49 7.3 °C 6.2 °C 1030.1 hPa West 6.4 km/h 12.9 km/h 93% 0.0 mm 0 W/m2
22:54 7.3 °C 6.2 °C 1030.1 hPa West 6.4 km/h 11.3 km/h 93% 0.0 mm 0 W/m2
22:59 7.3 °C 6.2 °C 1030.1 hPa WNW 3.2 km/h 6.4 km/h 93% 0.0 mm 0 W/m2
23:04 7.2 °C 6.1 °C 1030.5 hPa NW 4.7 km/h 11.3 km/h 93% 0.0 mm 0 W/m2
23:09 7.2 °C 6.1 °C 1030.5 hPa WNW 6.4 km/h 12.9 km/h 93% 0.0 mm 0 W/m2
23:14 7.1 °C 6 °C 1030.8 hPa WNW 3.2 km/h 8 km/h 93% 0.0 mm 0 W/m2
23:19 7.1 °C 6 °C 1030.8 hPa WNW 3.2 km/h 12.9 km/h 93% 0.0 mm 0 W/m2
23:24 7 °C 5.9 °C 1030.8 hPa WNW 3.2 km/h 4.8 km/h 93% 0.0 mm 0 W/m2
23:29 6.9 °C 5.8 °C 1030.8 hPa West 3.2 km/h 9.7 km/h 93% 0.0 mm 0 W/m2
23:34 6.9 °C 5.8 °C 1030.8 hPa WNW 3.2 km/h 9.7 km/h 93% 0.0 mm 0 W/m2
23:39 6.9 °C 5.7 °C 1030.8 hPa West 4.7 km/h 6.4 km/h 92% 0.0 mm 0 W/m2
23:44 6.9 °C 5.7 °C 1030.8 hPa WSW 6.4 km/h 14.5 km/h 92% 0.0 mm 0 W/m2
23:49 6.9 °C 5.5 °C 1031.2 hPa WNW 4.7 km/h 17.7 km/h 91% 0.0 mm 0 W/m2
23:54 6.9 °C 5.5 °C 1031.2 hPa West 3.2 km/h 9.7 km/h 91% 0.0 mm 0 W/m2
23:59 6.8 °C 5.4 °C 1031.2 hPa West 9.7 km/h 17.7 km/h 91% 0.0 mm 0 W/m2
Juneau County Weather
Compliments of Weather Underground - 2 mb